createdAt,value
2017-06-26T00:00:10.626Z,0
2017-06-26T00:01:23.141Z,0
2017-06-26T00:02:35.354Z,0
2017-06-26T00:03:47.884Z,0
2017-06-26T00:05:00.105Z,0
2017-06-26T00:06:12.031Z,0
2017-06-26T00:07:24.524Z,0
2017-06-26T00:08:37.034Z,0
2017-06-26T00:09:49.566Z,0
2017-06-26T00:11:02.087Z,0
2017-06-26T00:12:14.029Z,0
2017-06-26T00:13:26.571Z,0
2017-06-26T00:14:39.088Z,0
2017-06-26T00:15:51.596Z,0
2017-06-26T00:17:03.816Z,0
2017-06-26T00:18:15.458Z,0
2017-06-26T00:19:27.383Z,0
2017-06-26T00:20:39.903Z,0
2017-06-26T00:21:52.464Z,0
2017-06-26T00:23:05.011Z,0
2017-06-26T00:24:17.556Z,0
2017-06-26T00:25:29.763Z,0
2017-06-26T00:26:42.259Z,0
2017-06-26T00:27:54.796Z,0
2017-06-26T00:29:07.329Z,0
2017-06-26T00:30:19.918Z,0
2017-06-26T00:31:32.159Z,0
2017-06-26T00:32:44.664Z,0
2017-06-26T00:33:57.197Z,0
2017-06-26T00:35:09.704Z,0
2017-06-26T00:36:21.944Z,0
2017-06-26T00:37:34.186Z,0
2017-06-26T00:38:46.720Z,0
2017-06-26T00:39:58.938Z,0
2017-06-26T00:41:11.385Z,0
2017-06-26T00:42:23.923Z,0
2017-06-26T00:43:36.473Z,0
2017-06-26T00:44:48.995Z,0
2017-06-26T00:46:01.232Z,0
2017-06-26T00:47:13.441Z,0
2017-06-26T00:48:25.660Z,0
2017-06-26T00:49:38.177Z,0
2017-06-26T00:50:50.716Z,0
2017-06-26T00:52:02.974Z,0
2017-06-26T00:53:15.511Z,0
2017-06-26T00:54:27.757Z,0
2017-06-26T00:55:39.961Z,0
2017-06-26T00:56:52.495Z,0
2017-06-26T00:58:05.024Z,0
2017-06-26T00:59:16.966Z,0
2017-06-26T01:00:29.491Z,0
2017-06-26T01:01:41.705Z,0
2017-06-26T01:02:54.225Z,0
2017-06-26T01:04:06.432Z,0
2017-06-26T01:05:18.660Z,0
2017-06-26T01:06:31.172Z,0
2017-06-26T01:07:43.695Z,0
2017-06-26T01:08:56.258Z,0
2017-06-26T01:10:08.803Z,0
2017-06-26T01:11:20.731Z,0
2017-06-26T01:12:33.230Z,0
2017-06-26T01:13:45.488Z,0
2017-06-26T01:14:58.018Z,0
2017-06-26T01:16:10.513Z,0
2017-06-26T01:17:23.011Z,0
2017-06-26T01:18:35.530Z,0
2017-06-26T01:19:48.054Z,0
2017-06-26T01:21:00.571Z,0
2017-06-26T01:22:13.113Z,0
2017-06-26T01:23:25.642Z,0
2017-06-26T01:24:38.184Z,0
2017-06-26T01:25:50.712Z,0
2017-06-26T01:27:03.254Z,0
2017-06-26T01:28:15.192Z,0
2017-06-26T01:29:27.718Z,0
2017-06-26T01:30:39.960Z,0
2017-06-26T01:31:52.480Z,0
2017-06-26T01:33:04.706Z,0
2017-06-26T01:34:17.245Z,0
2017-06-26T01:35:29.776Z,0
2017-06-26T01:36:41.998Z,0
2017-06-26T01:37:54.514Z,0
2017-06-26T01:39:07.035Z,0
2017-06-26T01:40:19.257Z,0
2017-06-26T01:41:31.478Z,0
2017-06-26T01:42:43.701Z,0
2017-06-26T01:43:56.244Z,0
2017-06-26T01:45:08.765Z,0
2017-06-26T01:46:20.981Z,0
2017-06-26T01:47:33.207Z,0
2017-06-26T01:48:45.727Z,0
2017-06-26T01:49:57.649Z,0
2017-06-26T01:51:10.169Z,0
2017-06-26T01:52:22.111Z,0
2017-06-26T01:53:34.656Z,0
2017-06-26T01:54:47.187Z,0
2017-06-26T01:55:59.404Z,0
2017-06-26T01:57:11.902Z,0
2017-06-26T01:58:24.439Z,0
2017-06-26T01:59:36.944Z,0
2017-06-26T02:00:49.462Z,0
2017-06-26T02:02:01.661Z,0
2017-06-26T02:03:13.870Z,0
2017-06-26T02:04:26.403Z,0
2017-06-26T02:05:38.920Z,0
2017-06-26T02:06:51.445Z,0
2017-06-26T02:08:03.962Z,0
2017-06-26T02:09:16.499Z,0
2017-06-26T02:10:28.706Z,0
2017-06-26T02:11:41.242Z,0
2017-06-26T02:12:53.788Z,0
2017-06-26T02:14:06.009Z,0
2017-06-26T02:15:18.517Z,0
2017-06-26T02:16:31.080Z,0
2017-06-26T02:17:43.610Z,0
2017-06-26T02:18:56.156Z,0
2017-06-26T02:20:08.717Z,0
2017-06-26T02:21:21.242Z,0
2017-06-26T02:22:33.755Z,0
2017-06-26T02:23:46.551Z,0
2017-06-26T02:24:58.485Z,0
2017-06-26T02:26:11.043Z,0
2017-06-26T02:27:23.576Z,0
2017-06-26T02:28:36.121Z,0
2017-06-26T02:29:48.656Z,0
2017-06-26T02:31:01.203Z,0
2017-06-26T02:32:13.448Z,0
2017-06-26T02:33:25.994Z,0
2017-06-26T02:34:38.502Z,0
2017-06-26T02:35:51.022Z,0
2017-06-26T02:37:03.562Z,0
2017-06-26T02:38:15.784Z,0
2017-06-26T02:39:28.009Z,5
2017-06-26T02:40:40.558Z,5
2017-06-26T02:41:53.076Z,5
2017-06-26T02:43:05.569Z,5
2017-06-26T02:44:18.081Z,5
2017-06-26T02:45:30.611Z,5
2017-06-26T02:46:42.835Z,5
2017-06-26T02:47:55.354Z,10
2017-06-26T02:49:07.869Z,10
2017-06-26T02:50:20.423Z,10
2017-06-26T02:51:32.636Z,10
2017-06-26T02:52:45.178Z,10
2017-06-26T02:53:57.686Z,10
2017-06-26T02:55:09.656Z,10
2017-06-26T02:56:22.202Z,10
2017-06-26T02:57:34.744Z,10
2017-06-26T02:58:46.963Z,10
2017-06-26T02:59:59.504Z,10
2017-06-26T03:01:12.034Z,15
2017-06-26T03:02:24.278Z,15
2017-06-26T03:03:36.802Z,15
2017-06-26T03:04:49.313Z,15
2017-06-26T03:06:01.562Z,15
2017-06-26T03:07:14.079Z,10
2017-06-26T03:08:26.626Z,10
2017-06-26T03:09:39.154Z,10
2017-06-26T03:10:51.740Z,10
2017-06-26T03:12:04.288Z,10
2017-06-26T03:13:16.837Z,15
2017-06-26T03:14:29.362Z,15
2017-06-26T03:15:41.888Z,15
2017-06-26T03:16:54.454Z,15
2017-06-26T03:18:07.004Z,15
2017-06-26T03:19:19.571Z,15
2017-06-26T03:20:32.114Z,15
2017-06-26T03:21:44.630Z,15
2017-06-26T03:22:57.173Z,15
2017-06-26T03:24:09.980Z,15
2017-06-26T03:25:22.505Z,20
2017-06-26T03:26:34.751Z,25
2017-06-26T03:27:47.285Z,30
2017-06-26T03:28:59.517Z,25
2017-06-26T03:30:12.061Z,20
2017-06-26T03:31:24.284Z,20
2017-06-26T03:32:36.802Z,25
2017-06-26T03:33:49.322Z,30
2017-06-26T03:35:01.893Z,40
2017-06-26T03:36:14.141Z,40
2017-06-26T03:37:26.363Z,35
2017-06-26T03:38:38.610Z,30
2017-06-26T03:39:51.129Z,30
2017-06-26T03:41:03.671Z,35
2017-06-26T03:42:16.210Z,45
2017-06-26T03:43:28.732Z,40
2017-06-26T03:44:41.238Z,40
2017-06-26T03:45:54.005Z,45
2017-06-26T03:47:06.528Z,40
2017-06-26T03:48:19.051Z,50
2017-06-26T03:49:31.273Z,60
2017-06-26T03:50:43.843Z,60
2017-06-26T03:51:56.360Z,50
2017-06-26T03:53:08.861Z,55
2017-06-26T03:54:21.394Z,55
2017-06-26T03:55:33.928Z,55
2017-06-26T03:56:46.449Z,75
2017-06-26T03:57:58.965Z,90
2017-06-26T03:59:11.494Z,105
2017-06-26T04:00:24.081Z,115
2017-06-26T04:01:36.606Z,125
2017-06-26T04:02:49.124Z,135
2017-06-26T04:04:01.645Z,145
2017-06-26T04:05:13.870Z,150
2017-06-26T04:06:26.391Z,145
2017-06-26T04:07:38.914Z,150
2017-06-26T04:08:51.171Z,150
2017-06-26T04:10:03.699Z,150
2017-06-26T04:11:15.916Z,145
2017-06-26T04:12:27.870Z,135
2017-06-26T04:13:40.412Z,125
2017-06-26T04:14:52.940Z,110
2017-06-26T04:16:05.181Z,100
2017-06-26T04:17:17.403Z,95
2017-06-26T04:18:30.246Z,95
2017-06-26T04:19:42.784Z,95
2017-06-26T04:20:55.340Z,100
2017-06-26T04:22:07.850Z,100
2017-06-26T04:23:19.782Z,110
2017-06-26T04:24:31.721Z,100
2017-06-26T04:25:44.275Z,95
2017-06-26T04:26:56.821Z,110
2017-06-26T04:28:09.058Z,125
2017-06-26T04:29:21.590Z,135
2017-06-26T04:30:34.131Z,135
2017-06-26T04:31:46.652Z,115
2017-06-26T04:32:59.193Z,115
2017-06-26T04:34:11.720Z,115
2017-06-26T04:35:24.263Z,115
2017-06-26T04:36:36.782Z,110
2017-06-26T04:37:49.323Z,105
2017-06-26T04:39:01.551Z,120
2017-06-26T04:40:14.015Z,125
2017-06-26T04:41:26.563Z,115
2017-06-26T04:42:39.093Z,110
2017-06-26T04:43:51.613Z,95
2017-06-26T04:45:04.159Z,80
2017-06-26T04:46:16.097Z,75
2017-06-26T04:47:28.027Z,75
2017-06-26T04:48:40.598Z,65
2017-06-26T04:49:53.113Z,75
2017-06-26T04:51:05.652Z,75
2017-06-26T04:52:18.201Z,70
2017-06-26T04:53:30.706Z,65
2017-06-26T04:54:43.226Z,60
2017-06-26T04:55:55.473Z,65
2017-06-26T04:57:08.019Z,70
2017-06-26T04:58:20.290Z,85
2017-06-26T04:59:32.852Z,110
2017-06-26T05:00:45.097Z,105
2017-06-26T05:01:57.873Z,120
2017-06-26T05:03:10.373Z,145
2017-06-26T05:04:22.907Z,125
2017-06-26T05:05:35.139Z,95
2017-06-26T05:06:47.677Z,100
2017-06-26T05:07:59.656Z,115
2017-06-26T05:09:11.590Z,115
2017-06-26T05:10:24.113Z,120
2017-06-26T05:11:36.641Z,140
2017-06-26T05:12:49.162Z,130
2017-06-26T05:14:01.389Z,100
2017-06-26T05:15:13.908Z,100
2017-06-26T05:16:26.416Z,90
2017-06-26T05:17:38.649Z,125
2017-06-26T05:18:51.186Z,190
2017-06-26T05:20:03.129Z,190
2017-06-26T05:21:15.400Z,195
2017-06-26T05:22:27.649Z,185
2017-06-26T05:23:40.504Z,165
2017-06-26T05:24:53.024Z,105
2017-06-26T05:26:05.221Z,100
2017-06-26T05:27:17.716Z,95
2017-06-26T05:28:29.908Z,140
2017-06-26T05:29:42.404Z,155
2017-06-26T05:30:54.901Z,95
2017-06-26T05:32:07.141Z,65
2017-06-26T05:33:19.368Z,80
2017-06-26T05:34:31.892Z,115
2017-06-26T05:35:44.158Z,130
2017-06-26T05:36:56.655Z,195
2017-06-26T05:38:08.876Z,235
2017-06-26T05:39:21.100Z,240
2017-06-26T05:40:33.322Z,210
2017-06-26T05:41:45.843Z,170
2017-06-26T05:42:58.386Z,220
2017-06-26T05:44:10.906Z,205
2017-06-26T05:45:23.094Z,160
2017-06-26T05:46:35.323Z,105
2017-06-26T05:47:47.868Z,65
2017-06-26T05:49:00.069Z,65
2017-06-26T05:50:12.589Z,95
2017-06-26T05:51:25.126Z,135
2017-06-26T05:52:37.355Z,120
2017-06-26T05:53:49.876Z,100
2017-06-26T05:55:02.387Z,115
2017-06-26T05:56:14.343Z,160
2017-06-26T05:57:26.907Z,175
2017-06-26T05:58:39.459Z,135
2017-06-26T05:59:52.020Z,105
2017-06-26T06:01:04.553Z,120
2017-06-26T06:02:17.097Z,125
2017-06-26T06:03:29.318Z,80
2017-06-26T06:04:41.882Z,60
2017-06-26T06:05:54.435Z,70
2017-06-26T06:07:06.956Z,70
2017-06-26T06:08:18.873Z,70
2017-06-26T06:09:31.387Z,65
2017-06-26T06:10:43.895Z,95
2017-06-26T06:11:56.428Z,110
2017-06-26T06:13:08.965Z,100
2017-06-26T06:14:21.178Z,95
2017-06-26T06:15:32.802Z,115
2017-06-26T06:16:45.323Z,115
2017-06-26T06:17:58.108Z,105
2017-06-26T06:19:10.629Z,105
2017-06-26T06:20:23.137Z,30
2017-06-26T06:21:35.372Z,40
2017-06-26T06:22:47.931Z,55
2017-06-26T06:24:00.474Z,75
2017-06-26T06:25:12.694Z,110
2017-06-26T06:26:24.966Z,120
2017-06-26T06:27:37.204Z,150
2017-06-26T06:28:49.404Z,160
2017-06-26T06:30:01.957Z,165
2017-06-26T06:31:14.175Z,140
2017-06-26T06:32:26.396Z,85
2017-06-26T06:33:38.944Z,70
2017-06-26T06:34:51.159Z,135
2017-06-26T06:36:03.696Z,155
2017-06-26T06:37:15.917Z,165
2017-06-26T06:38:27.846Z,155
2017-06-26T06:39:40.646Z,100
2017-06-26T06:40:53.168Z,95
2017-06-26T06:42:05.433Z,120
2017-06-26T06:43:17.355Z,145
2017-06-26T06:44:29.868Z,125
2017-06-26T06:45:42.393Z,170
2017-06-26T06:46:54.897Z,145
2017-06-26T06:48:07.131Z,130
2017-06-26T06:49:19.663Z,140
2017-06-26T06:50:32.156Z,120
2017-06-26T06:51:44.677Z,150
2017-06-26T06:52:57.189Z,175
2017-06-26T06:54:09.422Z,180
2017-06-26T06:55:21.956Z,195
2017-06-26T06:56:34.214Z,175
2017-06-26T06:57:46.759Z,205
2017-06-26T06:58:59.277Z,260
2017-06-26T07:00:11.823Z,240
2017-06-26T07:01:24.586Z,215
2017-06-26T07:02:37.147Z,195
2017-06-26T07:03:49.678Z,150
2017-06-26T07:05:02.224Z,150
2017-06-26T07:06:14.149Z,175
2017-06-26T07:07:26.399Z,200
2017-06-26T07:08:38.920Z,210
2017-06-26T07:09:51.440Z,205
2017-06-26T07:11:03.938Z,210
2017-06-26T07:12:16.460Z,190
2017-06-26T07:13:28.382Z,175
2017-06-26T07:14:40.599Z,175
2017-06-26T07:15:53.120Z,215
2017-06-26T07:17:05.690Z,315
2017-06-26T07:18:17.935Z,365
2017-06-26T07:19:30.175Z,405
2017-06-26T07:20:42.703Z,430
2017-06-26T07:21:55.228Z,440
2017-06-26T07:23:07.448Z,490
2017-06-26T07:24:19.390Z,460
2017-06-26T07:25:31.337Z,395
2017-06-26T07:26:43.579Z,445
2017-06-26T07:27:56.106Z,555
2017-06-26T07:29:08.326Z,640
2017-06-26T07:30:20.527Z,670
2017-06-26T07:31:33.070Z,680
2017-06-26T07:32:45.308Z,670
2017-06-26T07:33:57.836Z,710
2017-06-26T07:35:10.059Z,780
2017-06-26T07:36:22.284Z,650
2017-06-26T07:37:34.842Z,730
2017-06-26T07:38:47.367Z,870
2017-06-26T07:39:59.942Z,1585
2017-06-26T07:41:12.179Z,1185
2017-06-26T07:42:24.386Z,1400
2017-06-26T07:43:36.917Z,2415
2017-06-26T07:44:49.464Z,930
2017-06-26T07:46:01.697Z,1035
2017-06-26T07:47:14.263Z,965
2017-06-26T07:48:26.189Z,920
2017-06-26T07:49:38.408Z,860
2017-06-26T07:50:50.955Z,625
2017-06-26T07:52:03.471Z,795
2017-06-26T07:53:15.709Z,910
2017-06-26T07:54:27.931Z,1120
2017-06-26T07:55:40.160Z,1135
2017-06-26T07:56:52.660Z,830
2017-06-26T07:58:04.894Z,845
2017-06-26T07:59:16.822Z,800
2017-06-26T08:00:29.047Z,885
2017-06-26T08:01:41.265Z,1045
2017-06-26T08:02:53.528Z,1275
2017-06-26T08:04:06.074Z,1575
2017-06-26T08:05:18.602Z,965
2017-06-26T08:06:30.844Z,875
2017-06-26T08:07:43.077Z,695
2017-06-26T08:08:55.640Z,710
2017-06-26T08:10:07.581Z,825
2017-06-26T08:11:20.127Z,870
2017-06-26T08:12:32.357Z,885
2017-06-26T08:13:44.925Z,840
2017-06-26T08:14:57.182Z,825
2017-06-26T08:16:09.422Z,810
2017-06-26T08:17:21.614Z,955
2017-06-26T08:18:33.860Z,975
2017-06-26T08:19:46.357Z,1115
2017-06-26T08:20:58.303Z,1015
2017-06-26T08:22:10.850Z,1045
2017-06-26T08:23:23.417Z,1010
2017-06-26T08:24:35.680Z,985
2017-06-26T08:25:47.936Z,885
2017-06-26T08:27:00.483Z,795
2017-06-26T08:28:12.700Z,830
2017-06-26T08:29:25.226Z,875
2017-06-26T08:30:37.471Z,1045
2017-06-26T08:31:50.005Z,825
2017-06-26T08:33:02.536Z,1210
2017-06-26T08:34:15.058Z,1310
2017-06-26T08:35:27.626Z,1430
2017-06-26T08:36:39.847Z,1430
2017-06-26T08:37:52.371Z,3000
2017-06-26T08:39:04.617Z,980
2017-06-26T08:40:17.162Z,910
2017-06-26T08:41:29.385Z,3295
2017-06-26T08:42:41.621Z,3225
2017-06-26T08:43:54.168Z,1855
2017-06-26T08:45:06.714Z,3230
2017-06-26T08:46:19.239Z,1125
2017-06-26T08:47:31.763Z,2680
2017-06-26T08:48:43.998Z,1260
2017-06-26T08:49:56.250Z,1175
2017-06-26T08:51:08.793Z,990
2017-06-26T08:52:21.035Z,1490
2017-06-26T08:53:33.284Z,1195
2017-06-26T08:54:45.835Z,2920
2017-06-26T08:55:58.358Z,2710
2017-06-26T08:57:10.561Z,1115
2017-06-26T08:58:22.818Z,1310
2017-06-26T08:59:35.068Z,1040
2017-06-26T09:00:46.718Z,1140
2017-06-26T09:01:59.282Z,2815
2017-06-26T09:03:11.235Z,985
2017-06-26T09:04:23.805Z,3755
2017-06-26T09:05:36.340Z,1680
2017-06-26T09:06:48.873Z,1150
2017-06-26T09:08:01.408Z,1195
2017-06-26T09:09:13.942Z,2515
2017-06-26T09:10:26.482Z,1100
2017-06-26T09:11:39.006Z,1395
2017-06-26T09:12:51.245Z,1455
2017-06-26T09:14:03.478Z,1135
2017-06-26T09:15:16.033Z,1050
2017-06-26T09:16:28.280Z,915
2017-06-26T09:17:40.785Z,880
2017-06-26T09:18:53.328Z,890
2017-06-26T09:20:05.578Z,965
2017-06-26T09:21:17.824Z,955
2017-06-26T09:22:30.362Z,900
2017-06-26T09:23:42.587Z,865
2017-06-26T09:24:55.125Z,1040
2017-06-26T09:26:07.675Z,3980
2017-06-26T09:27:19.900Z,1255
2017-06-26T09:28:32.449Z,1525
2017-06-26T09:29:44.366Z,1825
2017-06-26T09:30:56.641Z,1205
2017-06-26T09:32:09.200Z,1100
2017-06-26T09:33:21.125Z,1030
2017-06-26T09:34:33.082Z,1055
2017-06-26T09:35:45.339Z,2525
2017-06-26T09:36:57.867Z,1915
2017-06-26T09:38:10.091Z,3095
2017-06-26T09:39:22.613Z,3565
2017-06-26T09:40:35.172Z,3625
2017-06-26T09:41:46.826Z,3495
2017-06-26T09:42:59.371Z,3580
2017-06-26T09:44:11.921Z,3610
2017-06-26T09:45:24.164Z,2345
2017-06-26T09:46:36.688Z,4245
2017-06-26T09:47:49.238Z,875
2017-06-26T09:49:01.506Z,970
2017-06-26T09:50:14.076Z,3860
2017-06-26T09:51:26.622Z,1040
2017-06-26T09:52:38.889Z,945
2017-06-26T09:53:51.467Z,685
2017-06-26T09:55:04.167Z,4245
2017-06-26T09:56:16.900Z,2755
2017-06-26T09:57:29.617Z,3295
2017-06-26T09:58:41.739Z,3985
2017-06-26T09:59:54.180Z,345
2017-06-26T10:01:06.762Z,3670
2017-06-26T10:02:19.336Z,2815
2017-06-26T10:03:31.885Z,3860
2017-06-26T10:04:44.176Z,4370
2017-06-26T10:05:56.443Z,2420
2017-06-26T10:07:08.998Z,1840
2017-06-26T10:08:21.261Z,1415
2017-06-26T10:09:33.528Z,1660
2017-06-26T10:10:45.807Z,1070
2017-06-26T10:11:58.078Z,765
2017-06-26T10:13:10.624Z,4370
2017-06-26T10:14:22.561Z,1170
2017-06-26T10:15:34.817Z,1090
2017-06-26T10:16:46.793Z,955
2017-06-26T10:17:59.036Z,1035
2017-06-26T10:19:10.995Z,4005
2017-06-26T10:20:23.527Z,3855
2017-06-26T10:21:36.112Z,4335
2017-06-26T10:22:48.394Z,2080
2017-06-26T10:24:00.680Z,720
2017-06-26T10:25:13.242Z,2935
2017-06-26T10:26:25.217Z,3720
2017-06-26T10:27:37.772Z,1640
2017-06-26T10:28:50.346Z,3350
2017-06-26T10:30:02.620Z,4430
2017-06-26T10:31:14.901Z,3685
2017-06-26T10:32:27.184Z,1075
2017-06-26T10:33:39.757Z,1080
2017-06-26T10:34:52.322Z,4630
2017-06-26T10:36:04.294Z,4780
2017-06-26T10:37:16.838Z,3800
2017-06-26T10:38:29.659Z,4600
2017-06-26T10:39:42.277Z,3385
2017-06-26T10:40:54.835Z,3825
2017-06-26T10:42:07.389Z,1035
2017-06-26T10:43:19.668Z,2325
2017-06-26T10:44:32.227Z,4390
2017-06-26T10:45:44.467Z,1805
2017-06-26T10:46:56.730Z,870
2017-06-26T10:48:09.293Z,885
2017-06-26T10:49:21.828Z,710
2017-06-26T10:50:34.102Z,500
2017-06-26T10:51:46.388Z,460
2017-06-26T10:52:58.639Z,660
2017-06-26T10:54:11.197Z,960
2017-06-26T10:55:23.734Z,945
2017-06-26T10:56:35.701Z,1350
2017-06-26T10:57:47.669Z,4385
2017-06-26T10:59:00.246Z,870
2017-06-26T11:00:12.514Z,745
2017-06-26T11:01:24.761Z,710
2017-06-26T11:02:37.047Z,545
2017-06-26T11:03:49.315Z,460
2017-06-26T11:05:01.594Z,435
2017-06-26T11:06:13.870Z,340
2017-06-26T11:07:26.132Z,270
2017-06-26T11:08:38.698Z,325
2017-06-26T11:09:51.232Z,340
2017-06-26T11:11:03.785Z,445
2017-06-26T11:12:16.377Z,590
2017-06-26T11:13:28.944Z,530
2017-06-26T11:14:41.490Z,570
2017-06-26T11:15:53.750Z,1010
2017-06-26T11:17:06.304Z,1220
2017-06-26T11:18:18.881Z,705
2017-06-26T11:19:31.437Z,455
2017-06-26T11:20:43.690Z,440
2017-06-26T11:21:56.236Z,455
2017-06-26T11:23:08.812Z,425
2017-06-26T11:24:21.353Z,445
2017-06-26T11:25:33.903Z,640
2017-06-26T11:26:46.478Z,685
2017-06-26T11:27:58.746Z,545
2017-06-26T11:29:11.266Z,585
2017-06-26T11:30:23.839Z,525
2017-06-26T11:31:36.422Z,320
2017-06-26T11:32:48.959Z,325
2017-06-26T11:34:01.248Z,645
2017-06-26T11:35:13.817Z,1025
2017-06-26T11:36:26.091Z,1250
2017-06-26T11:37:38.633Z,1395
2017-06-26T11:38:50.901Z,1150
2017-06-26T11:40:03.433Z,925
2017-06-26T11:41:15.671Z,980
2017-06-26T11:42:28.238Z,2205
2017-06-26T11:43:40.521Z,995
2017-06-26T11:44:53.083Z,540
2017-06-26T11:46:05.026Z,510
2017-06-26T11:47:17.597Z,590
2017-06-26T11:48:30.168Z,710
2017-06-26T11:49:42.726Z,640
2017-06-26T11:50:54.989Z,650
2017-06-26T11:52:07.259Z,720
2017-06-26T11:53:19.790Z,1050
2017-06-26T11:54:32.040Z,4185
2017-06-26T11:55:44.601Z,6705
2017-06-26T11:56:57.186Z,8300
2017-06-26T11:58:09.744Z,7210
2017-06-26T11:59:22.289Z,1065
2017-06-26T12:00:34.836Z,945
2017-06-26T12:01:46.777Z,910
2017-06-26T12:02:59.350Z,820
2017-06-26T12:04:11.575Z,755
2017-06-26T12:05:23.846Z,845
2017-06-26T12:06:36.095Z,805
2017-06-26T12:07:48.337Z,5735
2017-06-26T12:09:00.608Z,5745
2017-06-26T12:10:13.173Z,2640
2017-06-26T12:11:25.426Z,1065
2017-06-26T12:12:37.394Z,1000
2017-06-26T12:13:49.657Z,2055
2017-06-26T12:15:02.218Z,1745
2017-06-26T12:16:14.799Z,995
2017-06-26T12:17:27.051Z,785
2017-06-26T12:18:39.349Z,790
2017-06-26T12:19:51.874Z,775
2017-06-26T12:21:03.540Z,1150
2017-06-26T12:22:16.083Z,1680
2017-06-26T12:23:28.654Z,1835
2017-06-26T12:24:40.604Z,1170
2017-06-26T12:25:53.128Z,4330
2017-06-26T12:27:05.668Z,3880
2017-06-26T12:28:18.233Z,4050
2017-06-26T12:29:30.800Z,4195
2017-06-26T12:30:43.053Z,3350
2017-06-26T12:31:55.583Z,4750
2017-06-26T12:33:08.152Z,4630
2017-06-26T12:34:20.695Z,2425
2017-06-26T12:35:32.954Z,4980
2017-06-26T12:36:45.512Z,4845
2017-06-26T12:37:57.767Z,4555
2017-06-26T12:39:10.321Z,4630
2017-06-26T12:40:22.871Z,4835
2017-06-26T12:41:35.442Z,4855
2017-06-26T12:42:47.711Z,5085
2017-06-26T12:43:59.954Z,4995
2017-06-26T12:45:12.550Z,5120
2017-06-26T12:46:25.082Z,1195
2017-06-26T12:47:37.353Z,4435
2017-06-26T12:48:49.620Z,2695
2017-06-26T12:50:01.883Z,4535
2017-06-26T12:51:14.144Z,4750
2017-06-26T12:52:26.753Z,5055
2017-06-26T12:53:39.022Z,795
2017-06-26T12:54:51.290Z,2990
2017-06-26T12:56:03.844Z,2005
2017-06-26T12:57:16.117Z,4875
2017-06-26T12:58:28.384Z,5035
2017-06-26T12:59:40.644Z,5080
2017-06-26T13:00:52.905Z,570
2017-06-26T13:02:05.452Z,460
2017-06-26T13:03:18.022Z,540
2017-06-26T13:04:30.301Z,1215
2017-06-26T13:05:42.859Z,4895
2017-06-26T13:06:55.106Z,3500
2017-06-26T13:08:07.660Z,945
2017-06-26T13:09:20.210Z,530
2017-06-26T13:10:32.469Z,465
2017-06-26T13:11:45.035Z,480
2017-06-26T13:12:57.637Z,615
2017-06-26T13:14:10.190Z,560
2017-06-26T13:15:22.753Z,740
2017-06-26T13:16:35.330Z,870
2017-06-26T13:17:47.574Z,605
2017-06-26T13:19:00.144Z,455
2017-06-26T13:20:12.686Z,365
2017-06-26T13:21:25.305Z,340
2017-06-26T13:22:37.856Z,465
2017-06-26T13:23:49.803Z,715
2017-06-26T13:25:02.354Z,710
2017-06-26T13:26:14.626Z,590
2017-06-26T13:27:27.214Z,565
2017-06-26T13:28:39.162Z,555
2017-06-26T13:29:51.761Z,535
2017-06-26T13:31:04.336Z,510
2017-06-26T13:32:16.900Z,490
2017-06-26T13:33:29.171Z,450
2017-06-26T13:34:41.722Z,350
2017-06-26T13:35:54.271Z,295
2017-06-26T13:37:06.533Z,275
2017-06-26T13:38:19.128Z,255
2017-06-26T13:39:31.420Z,305
2017-06-26T13:40:43.738Z,435
2017-06-26T13:41:56.316Z,530
2017-06-26T13:43:08.588Z,550
2017-06-26T13:44:21.155Z,500
2017-06-26T13:45:33.726Z,415
2017-06-26T13:46:46.268Z,385
2017-06-26T13:47:58.523Z,420
2017-06-26T13:49:10.793Z,435
2017-06-26T13:50:23.358Z,490
2017-06-26T13:51:35.001Z,570
2017-06-26T13:52:47.241Z,540
2017-06-26T13:53:59.514Z,485
2017-06-26T13:55:12.071Z,485
2017-06-26T13:56:24.335Z,555
2017-06-26T13:57:36.605Z,450
2017-06-26T13:58:48.872Z,360
2017-06-26T14:00:01.101Z,535
2017-06-26T14:01:13.654Z,3390
2017-06-26T14:02:26.225Z,985
2017-06-26T14:03:38.793Z,900
2017-06-26T14:04:51.041Z,1235
2017-06-26T14:06:03.597Z,4760
2017-06-26T14:07:16.160Z,4755
2017-06-26T14:08:28.701Z,4335
2017-06-26T14:09:40.946Z,4285
2017-06-26T14:10:53.197Z,4170
2017-06-26T14:12:05.788Z,4635
2017-06-26T14:13:18.363Z,2735
2017-06-26T14:14:30.303Z,610
2017-06-26T14:15:42.585Z,550
2017-06-26T14:16:55.148Z,485
2017-06-26T14:18:07.390Z,470
2017-06-26T14:19:19.939Z,520
2017-06-26T14:20:31.882Z,540
2017-06-26T14:21:44.438Z,515
2017-06-26T14:22:56.391Z,455
2017-06-26T14:24:08.944Z,405
2017-06-26T14:25:21.195Z,405
2017-06-26T14:26:33.707Z,455
2017-06-26T14:27:46.260Z,515
2017-06-26T14:28:58.507Z,535
2017-06-26T14:30:11.082Z,575
2017-06-26T14:31:23.344Z,680
2017-06-26T14:32:35.895Z,735
2017-06-26T14:33:48.140Z,765
2017-06-26T14:35:00.737Z,690
2017-06-26T14:36:12.989Z,640
2017-06-26T14:37:25.827Z,575
2017-06-26T14:38:38.121Z,550
2017-06-26T14:39:50.369Z,560
2017-06-26T14:41:02.937Z,505
2017-06-26T14:42:14.904Z,450
2017-06-26T14:43:27.479Z,555
2017-06-26T14:44:39.728Z,1085
2017-06-26T14:45:51.977Z,985
2017-06-26T14:47:04.522Z,790
2017-06-26T14:48:17.092Z,705
2017-06-26T14:49:29.637Z,695
2017-06-26T14:50:42.186Z,650
2017-06-26T14:51:54.157Z,570
2017-06-26T14:53:06.447Z,575
2017-06-26T14:54:19.027Z,560
2017-06-26T14:55:31.580Z,575
2017-06-26T14:56:43.831Z,650
2017-06-26T14:57:56.101Z,615
2017-06-26T14:59:08.355Z,535
2017-06-26T15:00:20.941Z,575
2017-06-26T15:01:33.525Z,605
2017-06-26T15:02:45.798Z,585
2017-06-26T15:03:58.385Z,550
2017-06-26T15:05:10.955Z,530
2017-06-26T15:06:23.522Z,510
2017-06-26T15:07:36.072Z,510
2017-06-26T15:08:48.347Z,540
2017-06-26T15:10:00.594Z,515
2017-06-26T15:11:12.864Z,530
2017-06-26T15:12:25.107Z,545
2017-06-26T15:13:37.061Z,440
2017-06-26T15:14:49.070Z,390
2017-06-26T15:16:01.598Z,385
2017-06-26T15:17:13.868Z,355
2017-06-26T15:18:26.419Z,350
2017-06-26T15:19:38.068Z,340
2017-06-26T15:20:50.879Z,355
2017-06-26T15:22:03.128Z,405
2017-06-26T15:23:15.699Z,480
2017-06-26T15:24:28.238Z,665
2017-06-26T15:25:40.179Z,655
2017-06-26T15:26:52.733Z,630
2017-06-26T15:28:05.002Z,625
2017-06-26T15:29:17.281Z,685
2017-06-26T15:30:29.244Z,670
2017-06-26T15:31:41.496Z,630
2017-06-26T15:32:54.036Z,735
2017-06-26T15:34:06.563Z,720
2017-06-26T15:35:19.117Z,635
2017-06-26T15:36:31.680Z,660
2017-06-26T15:37:43.595Z,605
2017-06-26T15:38:56.143Z,535
2017-06-26T15:40:08.409Z,525
2017-06-26T15:41:20.687Z,1490
2017-06-26T15:42:32.646Z,1555
2017-06-26T15:43:44.908Z,700
2017-06-26T15:44:57.179Z,475
2017-06-26T15:46:09.442Z,430
2017-06-26T15:47:21.981Z,540
2017-06-26T15:48:34.537Z,660
2017-06-26T15:49:46.813Z,585
2017-06-26T15:50:59.334Z,475
2017-06-26T15:52:11.871Z,420
2017-06-26T15:53:24.135Z,395
2017-06-26T15:54:36.072Z,385
2017-06-26T15:55:47.731Z,430
2017-06-26T15:57:00.310Z,475
2017-06-26T15:58:12.858Z,440
2017-06-26T15:59:25.402Z,405
2017-06-26T16:00:37.939Z,385
2017-06-26T16:01:50.486Z,440
2017-06-26T16:03:02.741Z,545
2017-06-26T16:04:14.724Z,515
2017-06-26T16:05:27.277Z,505
2017-06-26T16:06:39.509Z,480
2017-06-26T16:07:52.083Z,540
2017-06-26T16:09:04.667Z,515
2017-06-26T16:10:17.232Z,465
2017-06-26T16:11:29.189Z,450
2017-06-26T16:12:41.112Z,395
2017-06-26T16:13:53.340Z,310
2017-06-26T16:15:05.894Z,300
2017-06-26T16:16:18.452Z,305
2017-06-26T16:17:31.019Z,315
2017-06-26T16:18:43.604Z,325
2017-06-26T16:19:55.852Z,340
2017-06-26T16:21:08.427Z,320
2017-06-26T16:22:20.686Z,330
2017-06-26T16:23:33.224Z,320
2017-06-26T16:24:45.790Z,285
2017-06-26T16:25:58.333Z,275
2017-06-26T16:27:10.898Z,315
2017-06-26T16:28:23.128Z,340
2017-06-26T16:29:35.691Z,340
2017-06-26T16:30:47.944Z,345
2017-06-26T16:32:00.538Z,370
2017-06-26T16:33:12.508Z,370
2017-06-26T16:34:25.013Z,345
2017-06-26T16:35:37.556Z,325
2017-06-26T16:36:49.474Z,330
2017-06-26T16:38:02.038Z,355
2017-06-26T16:39:13.977Z,385
2017-06-26T16:40:26.225Z,455
2017-06-26T16:41:38.783Z,435
2017-06-26T16:42:51.331Z,395
2017-06-26T16:44:03.901Z,360
2017-06-26T16:45:16.438Z,330